Portada
METAR-TAF:

METAR-TAF

Aeroports :

Dzaoudzi, Mayotte

latitud: 12-48S, longitud: 045-17E, altitud: 8 m

Observació

L'informe es va fer fa 23 minuts, a les 02:00 UTC
Vent 8 kt del Sud
Temperatura 26°C
Humitat 84%
Pressió 1013 hPa
Visibilitat 10 km o més
sense núvols per sota de 1500 mi sense presència de cumulonimbus.

METAR: FMCZ 200200Z AUTO 17008KT CAVOK 26/23 Q1013 NOSIG

Hora: 05:23 (02:23 UTC)

Pronòstic

L'informe es va fer fa 3 hores i 23 minuts, a les 23:00 UTC
Pronòstic vàlid del 20 a les 00 UTC al 20 a les 24 UTC
Vent 10 kt del Sud
Visibilitat 10 km o més
Escasses núvols a una alçada de 2200 ft

TAF: FMCZ 192300Z 2000/2024 17010KT 9999 FEW022

Observacions i pronòstics meteorològics de més de 4000 aeroports (METAR i TAF).

Les estacions disponibles són els punts grocs i vermells al mapa.

Posi el ratolí al punt desitjat per veure el nom de l'estació.

Feu clic per veure les observacions i els pronòstics meteorològics.

Per canviar el mapa: feu clic els botons verds amb una creu de color negre per apropar; al botó verd amb un guió per allunyar la imatge; o en les fletxes verdes per a mapes adjacents.


METAR-TAF: